sensor_id;sensor_type;location;lat;lon;timestamp;pressure;altitude;pressure_sealevel;temperature;humidity
62462;BME280;48511;38.664;-9.202;2022-07-22T00:01:03;100766.19;;;17.99;82.19
62462;BME280;48511;38.664;-9.202;2022-07-22T00:03:04;100752.50;;;17.94;82.30
62462;BME280;48511;38.664;-9.202;2022-07-22T00:05:05;100763.56;;;17.99;82.38
62462;BME280;48511;38.664;-9.202;2022-07-22T00:07:06;100759.34;;;17.83;82.85
62462;BME280;48511;38.664;-9.202;2022-07-22T00:09:07;100757.94;;;17.91;82.57
62462;BME280;48511;38.664;-9.202;2022-07-22T00:11:08;100750.97;;;18.15;81.30
62462;BME280;48511;38.664;-9.202;2022-07-22T00:13:09;100753.97;;;17.98;82.05
62462;BME280;48511;38.664;-9.202;2022-07-22T00:15:09;100756.16;;;17.91;82.36
62462;BME280;48511;38.664;-9.202;2022-07-22T00:17:10;100750.16;;;18.02;81.72
62462;BME280;48511;38.664;-9.202;2022-07-22T00:19:11;100762.38;;;17.90;82.57
62462;BME280;48511;38.664;-9.202;2022-07-22T00:21:12;100754.78;;;17.85;82.55
62462;BME280;48511;38.664;-9.202;2022-07-22T00:23:13;100753.72;;;18.01;81.59
62462;BME280;48511;38.664;-9.202;2022-07-22T00:25:13;100753.09;;;18.10;81.11
62462;BME280;48511;38.664;-9.202;2022-07-22T00:27:14;100749.50;;;17.98;81.54
62462;BME280;48511;38.664;-9.202;2022-07-22T00:29:16;100744.44;;;18.08;81.28
62462;BME280;48511;38.664;-9.202;2022-07-22T00:31:16;100749.72;;;18.08;81.18
62462;BME280;48511;38.664;-9.202;2022-07-22T00:33:17;100742.31;;;18.13;81.15
62462;BME280;48511;38.664;-9.202;2022-07-22T00:35:18;100741.97;;;17.94;82.04
62462;BME280;48511;38.664;-9.202;2022-07-22T00:37:20;100745.75;;;17.90;82.29
62462;BME280;48511;38.664;-9.202;2022-07-22T00:39:20;100741.91;;;18.07;81.52
62462;BME280;48511;38.664;-9.202;2022-07-22T00:41:22;100735.50;;;17.98;81.88
62462;BME280;48511;38.664;-9.202;2022-07-22T00:43:23;100746.56;;;18.03;81.75
62462;BME280;48511;38.664;-9.202;2022-07-22T00:45:24;100738.13;;;17.98;81.86
62462;BME280;48511;38.664;-9.202;2022-07-22T00:47:25;100740.78;;;17.98;81.79
62462;BME280;48511;38.664;-9.202;2022-07-22T00:49:26;100742.97;;;18.04;81.30
62462;BME280;48511;38.664;-9.202;2022-07-22T00:51:28;100737.19;;;17.99;81.18
62462;BME280;48511;38.664;-9.202;2022-07-22T00:53:30;100742.97;;;18.04;81.32
62462;BME280;48511;38.664;-9.202;2022-07-22T00:55:33;100747.22;;;17.94;81.39
62462;BME280;48511;38.664;-9.202;2022-07-22T00:57:34;100732.31;;;17.93;81.41
62462;BME280;48511;38.664;-9.202;2022-07-22T00:59:35;100738.78;;;17.88;81.41
62462;BME280;48511;38.664;-9.202;2022-07-22T01:01:36;100725.47;;;17.90;81.60
62462;BME280;48511;38.664;-9.202;2022-07-22T01:03:37;100729.91;;;17.90;81.81
62462;BME280;48511;38.664;-9.202;2022-07-22T01:05:37;100730.63;;;17.92;81.78
62462;BME280;48511;38.664;-9.202;2022-07-22T01:07:39;100725.59;;;17.88;81.78
62462;BME280;48511;38.664;-9.202;2022-07-22T01:09:45;100720.88;;;17.81;82.12
62462;BME280;48511;38.664;-9.202;2022-07-22T01:11:46;100715.16;;;17.87;81.91
62462;BME280;48511;38.664;-9.202;2022-07-22T01:13:47;100720.44;;;17.87;82.09
62462;BME280;48511;38.664;-9.202;2022-07-22T01:15:48;100715.75;;;17.91;82.13
62462;BME280;48511;38.664;-9.202;2022-07-22T01:17:49;100714.09;;;17.90;81.69
62462;BME280;48511;38.664;-9.202;2022-07-22T01:19:50;100715.47;;;17.82;82.15
62462;BME280;48511;38.664;-9.202;2022-07-22T01:21:51;100710.44;;;17.79;81.82
62462;BME280;48511;38.664;-9.202;2022-07-22T01:23:52;100703.75;;;17.86;81.65
62462;BME280;48511;38.664;-9.202;2022-07-22T01:25:53;100701.34;;;17.83;81.70
62462;BME280;48511;38.664;-9.202;2022-07-22T01:27:54;100700.41;;;17.84;81.55
62462;BME280;48511;38.664;-9.202;2022-07-22T01:29:55;100705.69;;;17.84;81.45
62462;BME280;48511;38.664;-9.202;2022-07-22T01:31:56;100710.31;;;17.94;80.72
62462;BME280;48511;38.664;-9.202;2022-07-22T01:33:57;100720.75;;;17.95;80.85
62462;BME280;48511;38.664;-9.202;2022-07-22T01:36:00;100715.59;;;17.81;81.45
62462;BME280;48511;38.664;-9.202;2022-07-22T01:38:01;100710.53;;;17.78;81.85
62462;BME280;48511;38.664;-9.202;2022-07-22T01:40:02;100718.34;;;17.79;82.31
62462;BME280;48511;38.664;-9.202;2022-07-22T01:42:03;100711.59;;;17.75;82.39
62462;BME280;48511;38.664;-9.202;2022-07-22T01:44:04;100711.59;;;17.75;82.52
62462;BME280;48511;38.664;-9.202;2022-07-22T01:46:06;100709.97;;;17.85;81.80
62462;BME280;48511;38.664;-9.202;2022-07-22T01:48:09;100713.88;;;17.93;81.18
62462;BME280;48511;38.664;-9.202;2022-07-22T01:50:10;100706.50;;;17.98;80.82
62462;BME280;48511;38.664;-9.202;2022-07-22T01:52:12;100701.00;;;17.88;81.45
62462;BME280;48511;38.664;-9.202;2022-07-22T01:54:15;100698.50;;;17.86;81.80
62462;BME280;48511;38.664;-9.202;2022-07-22T01:56:16;100693.88;;;17.77;82.28
62462;BME280;48511;38.664;-9.202;2022-07-22T01:58:22;100693.22;;;17.86;82.04
62462;BME280;48511;38.664;-9.202;2022-07-22T02:00:24;100690.63;;;17.74;82.33
62462;BME280;48511;38.664;-9.202;2022-07-22T02:02:24;100688.22;;;17.70;82.60
62462;BME280;48511;38.664;-9.202;2022-07-22T02:04:25;100691.16;;;17.66;82.74
62462;BME280;48511;38.664;-9.202;2022-07-22T02:06:26;100683.16;;;17.67;82.50
62462;BME280;48511;38.664;-9.202;2022-07-22T02:08:30;100690.97;;;17.69;82.86
62462;BME280;48511;38.664;-9.202;2022-07-22T02:10:39;100691.69;;;17.71;82.84
62462;BME280;48511;38.664;-9.202;2022-07-22T02:12:40;100686.97;;;17.63;82.98
62462;BME280;48511;38.664;-9.202;2022-07-22T02:14:42;100691.84;;;17.57;83.59
62462;BME280;48511;38.664;-9.202;2022-07-22T02:16:43;100688.88;;;17.61;83.35
62462;BME280;48511;38.664;-9.202;2022-07-22T02:18:45;100692.16;;;17.52;83.78
62462;BME280;48511;38.664;-9.202;2022-07-22T02:20:46;100691.84;;;17.57;83.79
62462;BME280;48511;38.664;-9.202;2022-07-22T02:22:49;100696.66;;;17.63;83.79
62462;BME280;48511;38.664;-9.202;2022-07-22T02:24:51;100695.72;;;17.64;83.72
62462;BME280;48511;38.664;-9.202;2022-07-22T02:26:52;100689.56;;;17.76;83.17
62462;BME280;48511;38.664;-9.202;2022-07-22T02:28:53;100689.03;;;17.71;83.61
62462;BME280;48511;38.664;-9.202;2022-07-22T02:30:54;100693.13;;;17.75;83.32
62462;BME280;48511;38.664;-9.202;2022-07-22T02:32:54;100689.41;;;17.66;83.95
62462;BME280;48511;38.664;-9.202;2022-07-22T02:34:55;100681.53;;;17.78;83.14
62462;BME280;48511;38.664;-9.202;2022-07-22T02:36:56;100689.47;;;17.65;83.31
62462;BME280;48511;38.664;-9.202;2022-07-22T02:38:57;100693.00;;;17.90;82.50
62462;BME280;48511;38.664;-9.202;2022-07-22T02:40:58;100689.56;;;17.76;83.11
62462;BME280;48511;38.664;-9.202;2022-07-22T02:42:59;100692.84;;;17.67;83.58
62462;BME280;48511;38.664;-9.202;2022-07-22T02:45:00;100698.13;;;17.67;83.56
62462;BME280;48511;38.664;-9.202;2022-07-22T02:47:02;100695.78;;;17.75;83.34
62462;BME280;48511;38.664;-9.202;2022-07-22T02:49:07;100688.94;;;17.73;83.15
62462;BME280;48511;38.664;-9.202;2022-07-22T02:51:08;100686.56;;;17.57;83.77
62462;BME280;48511;38.664;-9.202;2022-07-22T02:53:09;100688.69;;;17.51;84.43
62462;BME280;48511;38.664;-9.202;2022-07-22T02:55:13;100685.69;;;17.56;84.12
62462;BME280;48511;38.664;-9.202;2022-07-22T02:57:14;100693.09;;;17.64;83.63
62462;BME280;48511;38.664;-9.202;2022-07-22T02:59:15;100703.19;;;17.57;84.11
62462;BME280;48511;38.664;-9.202;2022-07-22T03:01:16;100685.63;;;17.58;83.72
62462;BME280;48511;38.664;-9.202;2022-07-22T03:03:24;100693.94;;;17.51;84.23
62462;BME280;48511;38.664;-9.202;2022-07-22T03:05:25;100691.84;;;17.57;83.78
62462;BME280;48511;38.664;-9.202;2022-07-22T03:07:33;100695.63;;;17.52;83.77
62462;BME280;48511;38.664;-9.202;2022-07-22T03:09:34;100688.34;;;17.56;83.48
62462;BME280;48511;38.664;-9.202;2022-07-22T03:11:35;100685.69;;;17.69;82.79
62462;BME280;48511;38.664;-9.202;2022-07-22T03:13:37;100680.22;;;17.59;82.66
62462;BME280;48511;38.664;-9.202;2022-07-22T03:15:38;100690.13;;;17.55;83.11
62462;BME280;48511;38.664;-9.202;2022-07-22T03:17:39;100690.25;;;17.54;83.13
62462;BME280;48511;38.664;-9.202;2022-07-22T03:19:41;100691.63;;;17.47;83.75
62462;BME280;48511;38.664;-9.202;2022-07-22T03:21:41;100686.69;;;17.42;83.86
62462;BME280;48511;38.664;-9.202;2022-07-22T03:23:42;100687.22;;;17.47;83.62
62462;BME280;48511;38.664;-9.202;2022-07-22T03:25:43;100681.94;;;17.47;83.49
62462;BME280;48511;38.664;-9.202;2022-07-22T03:27:44;100697.66;;;17.49;83.54
62462;BME280;48511;38.664;-9.202;2022-07-22T03:29:45;100693.09;;;17.51;83.31
62462;BME280;48511;38.664;-9.202;2022-07-22T03:31:46;100691.50;;;17.48;83.47
62462;BME280;48511;38.664;-9.202;2022-07-22T03:33:47;100697.31;;;17.53;82.99
62462;BME280;48511;38.664;-9.202;2022-07-22T03:35:49;100690.56;;;17.49;83.27
62462;BME280;48511;38.664;-9.202;2022-07-22T03:37:50;100702.78;;;17.50;83.02
62462;BME280;48511;38.664;-9.202;2022-07-22T03:39:51;100685.53;;;17.46;83.22
62462;BME280;48511;38.664;-9.202;2022-07-22T03:41:52;100695.44;;;17.43;83.58
62462;BME280;48511;38.664;-9.202;2022-07-22T03:43:53;100695.63;;;17.52;83.56
62462;BME280;48511;38.664;-9.202;2022-07-22T03:45:54;100692.50;;;17.47;83.56
62462;BME280;48511;38.664;-9.202;2022-07-22T03:47:55;100697.53;;;17.50;83.33
62462;BME280;48511;38.664;-9.202;2022-07-22T03:49:59;100691.97;;;17.42;83.78
62462;BME280;48511;38.664;-9.202;2022-07-22T03:52:02;100683.94;;;17.57;83.30
62462;BME280;48511;38.664;-9.202;2022-07-22T03:54:04;100680.78;;;17.51;83.09
62462;BME280;48511;38.664;-9.202;2022-07-22T03:56:05;100686.75;;;17.53;83.08
62462;BME280;48511;38.664;-9.202;2022-07-22T03:58:06;100686.34;;;17.47;83.67
62462;BME280;48511;38.664;-9.202;2022-07-22T04:00:07;100691.75;;;17.45;83.69
62462;BME280;48511;38.664;-9.202;2022-07-22T04:02:18;100683.22;;;17.42;83.88
62462;BME280;48511;38.664;-9.202;2022-07-22T04:04:20;100673.97;;;17.36;84.08
62462;BME280;48511;38.664;-9.202;2022-07-22T04:06:22;100676.38;;;17.39;84.11
62462;BME280;48511;38.664;-9.202;2022-07-22T04:08:28;100671.59;;;17.57;82.84
62462;BME280;48511;38.664;-9.202;2022-07-22T04:10:29;100672.25;;;17.48;83.25
62462;BME280;48511;38.664;-9.202;2022-07-22T04:12:38;100670.53;;;17.60;82.80
62462;BME280;48511;38.664;-9.202;2022-07-22T04:14:54;100681.09;;;17.47;82.89
62462;BME280;48511;38.664;-9.202;2022-07-22T04:16:55;100685.31;;;17.49;83.21
62462;BME280;48511;38.664;-9.202;2022-07-22T04:18:56;100682.97;;;17.58;82.75
62462;BME280;48511;38.664;-9.202;2022-07-22T04:21:15;100687.22;;;17.47;83.20
62462;BME280;48511;38.664;-9.202;2022-07-22T04:23:25;100690.56;;;17.49;83.25
62462;BME280;48511;38.664;-9.202;2022-07-22T04:25:34;100686.59;;;17.44;83.54
62462;BME280;48511;38.664;-9.202;2022-07-22T04:27:37;100694.16;;;17.48;83.25
62462;BME280;48511;38.664;-9.202;2022-07-22T04:29:38;100702.38;;;17.57;82.63
62462;BME280;48511;38.664;-9.202;2022-07-22T04:31:38;100681.38;;;17.68;82.11
62462;BME280;48511;38.664;-9.202;2022-07-22T04:33:45;100681.28;;;17.57;82.42
62462;BME280;48511;38.664;-9.202;2022-07-22T04:35:45;100682.38;;;17.41;83.35
62462;BME280;48511;38.664;-9.202;2022-07-22T04:37:50;100696.06;;;17.46;83.46
62462;BME280;48511;38.664;-9.202;2022-07-22T04:39:51;100697.53;;;17.50;82.97
62462;BME280;48511;38.664;-9.202;2022-07-22T04:41:52;100690.81;;;17.46;83.42
62462;BME280;48511;38.664;-9.202;2022-07-22T04:43:53;100692.03;;;17.53;83.20
62462;BME280;48511;38.664;-9.202;2022-07-22T04:45:57;100692.03;;;17.53;83.13
62462;BME280;48511;38.664;-9.202;2022-07-22T04:48:02;100684.38;;;17.37;84.00
62462;BME280;48511;38.664;-9.202;2022-07-22T04:50:04;100692.28;;;17.37;84.01
62462;BME280;48511;38.664;-9.202;2022-07-22T04:52:05;100699.66;;;17.45;83.41
62462;BME280;48511;38.664;-9.202;2022-07-22T04:54:17;100690.81;;;17.33;83.95
62462;BME280;48511;38.664;-9.202;2022-07-22T04:56:19;100695.22;;;17.33;84.06
62462;BME280;48511;38.664;-9.202;2022-07-22T04:58:20;100680.25;;;17.46;83.62
62462;BME280;48511;38.664;-9.202;2022-07-22T05:00:22;100685.56;;;17.33;84.11
62462;BME280;48511;38.664;-9.202;2022-07-22T05:02:27;100689.31;;;17.55;83.04
62462;BME280;48511;38.664;-9.202;2022-07-22T05:04:29;100687.66;;;17.41;83.61
62462;BME280;48511;38.664;-9.202;2022-07-22T05:06:29;100687.66;;;17.28;83.95
62462;BME280;48511;38.664;-9.202;2022-07-22T05:08:31;100695.56;;;17.28;84.36
62462;BME280;48511;38.664;-9.202;2022-07-22T05:10:33;100698.84;;;17.32;84.20
62462;BME280;48511;38.664;-9.202;2022-07-22T05:12:34;100695.88;;;17.24;84.64
62462;BME280;48511;38.664;-9.202;2022-07-22T05:14:35;100695.34;;;17.18;85.13
62462;BME280;48511;38.664;-9.202;2022-07-22T05:16:36;100701.88;;;17.26;84.86
62462;BME280;48511;38.664;-9.202;2022-07-22T05:18:38;100691.56;;;17.22;85.24
62462;BME280;48511;38.664;-9.202;2022-07-22T05:20:41;100692.72;;;17.31;84.76
62462;BME280;48511;38.664;-9.202;2022-07-22T05:22:42;100695.16;;;17.34;84.76
62462;BME280;48511;38.664;-9.202;2022-07-22T05:24:48;100701.09;;;17.49;83.81
62462;BME280;48511;38.664;-9.202;2022-07-22T05:26:49;100702.28;;;17.45;84.33
62462;BME280;48511;38.664;-9.202;2022-07-22T05:28:50;100700.28;;;17.36;84.96
62462;BME280;48511;38.664;-9.202;2022-07-22T05:30:51;100699.78;;;17.31;85.10
62462;BME280;48511;38.664;-9.202;2022-07-22T05:32:53;100690.41;;;17.27;85.22
62462;BME280;48511;38.664;-9.202;2022-07-22T05:35:12;100703.66;;;17.25;85.63
62462;BME280;48511;38.664;-9.202;2022-07-22T05:37:13;100712.53;;;17.24;85.82
62462;BME280;48511;38.664;-9.202;2022-07-22T05:39:16;100708.91;;;17.38;85.12
62462;BME280;48511;38.664;-9.202;2022-07-22T05:41:17;100711.34;;;17.41;85.03
62462;BME280;48511;38.664;-9.202;2022-07-22T05:43:17;100717.78;;;17.37;85.60
62462;BME280;48511;38.664;-9.202;2022-07-22T05:45:18;100710.59;;;17.39;85.04
62462;BME280;48511;38.664;-9.202;2022-07-22T05:47:19;100712.06;;;17.43;85.08
62462;BME280;48511;38.664;-9.202;2022-07-22T05:49:20;100704.09;;;17.45;85.03
62462;BME280;48511;38.664;-9.202;2022-07-22T05:51:31;100706.81;;;17.43;84.96
62462;BME280;48511;38.664;-9.202;2022-07-22T05:53:32;100709.34;;;17.45;84.94
62462;BME280;48511;38.664;-9.202;2022-07-22T05:55:32;100719.03;;;17.44;84.98
62462;BME280;48511;38.664;-9.202;2022-07-22T05:57:33;100700.91;;;17.52;84.23
62462;BME280;48511;38.664;-9.202;2022-07-22T05:59:34;100710.38;;;17.55;84.14
62462;BME280;48511;38.664;-9.202;2022-07-22T06:01:35;100714.47;;;17.59;83.88
62462;BME280;48511;38.664;-9.202;2022-07-22T06:03:43;100717.25;;;17.58;83.63
62462;BME280;48511;38.664;-9.202;2022-07-22T06:05:46;100719.63;;;17.74;82.93
62462;BME280;48511;38.664;-9.202;2022-07-22T06:07:47;100721.31;;;17.75;82.59
62462;BME280;48511;38.664;-9.202;2022-07-22T06:09:59;100729.09;;;17.76;82.27
62462;BME280;48511;38.664;-9.202;2022-07-22T06:11:59;100728.22;;;18.01;81.29
62462;BME280;48511;38.664;-9.202;2022-07-22T06:14:00;100732.44;;;17.91;81.67
62462;BME280;48511;38.664;-9.202;2022-07-22T06:16:02;100740.88;;;17.96;81.52
62462;BME280;48511;38.664;-9.202;2022-07-22T06:18:03;100738.22;;;18.09;80.66
62462;BME280;48511;38.664;-9.202;2022-07-22T06:20:04;100732.09;;;18.09;80.82
62462;BME280;48511;38.664;-9.202;2022-07-22T06:22:06;100731.06;;;18.23;80.07
62462;BME280;48511;38.664;-9.202;2022-07-22T06:24:07;100731.03;;;18.71;77.99
62462;BME280;48511;38.664;-9.202;2022-07-22T06:26:08;100734.41;;;19.09;76.87
62462;BME280;48511;38.664;-9.202;2022-07-22T06:28:10;100739.50;;;19.46;74.54
62462;BME280;48511;38.664;-9.202;2022-07-22T06:30:12;100741.75;;;19.62;73.40
62462;BME280;48511;38.664;-9.202;2022-07-22T06:32:13;100740.53;;;19.77;72.35
62462;BME280;48511;38.664;-9.202;2022-07-22T06:34:14;100745.63;;;19.69;72.48
62462;BME280;48511;38.664;-9.202;2022-07-22T06:36:29;100745.84;;;19.66;72.49
62462;BME280;48511;38.664;-9.202;2022-07-22T06:38:30;100740.56;;;19.66;72.30
62462;BME280;48511;38.664;-9.202;2022-07-22T06:40:49;100746.34;;;19.48;72.57
62462;BME280;48511;38.664;-9.202;2022-07-22T06:43:16;100753.78;;;19.43;73.25
62462;BME280;48511;38.664;-9.202;2022-07-22T06:45:39;100754.47;;;19.34;73.95
62462;BME280;48511;38.664;-9.202;2022-07-22T06:47:47;100756.63;;;19.29;74.69
62462;BME280;48511;38.664;-9.202;2022-07-22T06:49:49;100763.00;;;19.38;73.66
62462;BME280;48511;38.664;-9.202;2022-07-22T06:51:50;100755.22;;;19.36;73.62
62462;BME280;48511;38.664;-9.202;2022-07-22T06:53:51;100762.41;;;19.45;72.88
62462;BME280;48511;38.664;-9.202;2022-07-22T06:55:52;100762.41;;;19.45;73.16
62462;BME280;48511;38.664;-9.202;2022-07-22T06:57:53;100759.31;;;19.51;72.79
62462;BME280;48511;38.664;-9.202;2022-07-22T06:59:54;100765.91;;;19.57;72.83
62462;BME280;48511;38.664;-9.202;2022-07-22T07:01:56;100773.00;;;19.68;73.09
62462;BME280;48511;38.664;-9.202;2022-07-22T07:03:56;100780.50;;;19.86;72.15
62462;BME280;48511;38.664;-9.202;2022-07-22T07:05:57;100785.63;;;19.98;71.24
62462;BME280;48511;38.664;-9.202;2022-07-22T07:08:00;100791.88;;;20.09;70.15
62462;BME280;48511;38.664;-9.202;2022-07-22T07:10:01;100789.31;;;20.19;69.05
62462;BME280;48511;38.664;-9.202;2022-07-22T07:12:13;100791.25;;;20.16;69.57
62462;BME280;48511;38.664;-9.202;2022-07-22T07:14:37;100792.91;;;20.29;69.22
62462;BME280;48511;38.664;-9.202;2022-07-22T07:16:38;100789.88;;;20.33;68.30
62462;BME280;48511;38.664;-9.202;2022-07-22T07:18:39;100786.34;;;20.44;68.59
62462;BME280;48511;38.664;-9.202;2022-07-22T07:20:40;100779.59;;;20.52;67.68
62462;BME280;48511;38.664;-9.202;2022-07-22T07:22:43;100787.88;;;20.58;67.42
62462;BME280;48511;38.664;-9.202;2022-07-22T07:24:45;100798.09;;;20.63;67.75
62462;BME280;48511;38.664;-9.202;2022-07-22T07:26:45;100797.38;;;20.72;67.01
62462;BME280;48511;38.664;-9.202;2022-07-22T07:28:46;100795.75;;;20.48;66.95
62462;BME280;48511;38.664;-9.202;2022-07-22T07:30:51;100796.94;;;20.44;67.69
62462;BME280;48511;38.664;-9.202;2022-07-22T07:32:52;100787.03;;;20.25;68.37
62462;BME280;48511;38.664;-9.202;2022-07-22T07:34:54;100789.56;;;20.27;67.77
62462;BME280;48511;38.664;-9.202;2022-07-22T07:36:54;100791.16;;;20.51;67.68
62462;BME280;48511;38.664;-9.202;2022-07-22T07:38:55;100794.91;;;20.37;67.75
62462;BME280;48511;38.664;-9.202;2022-07-22T07:40:56;100792.41;;;20.35;67.84
62462;BME280;48511;38.664;-9.202;2022-07-22T07:42:57;100795.91;;;20.36;67.56
62462;BME280;48511;38.664;-9.202;2022-07-22T07:44:58;100794.28;;;20.44;66.88
62462;BME280;48511;38.664;-9.202;2022-07-22T07:46:59;100798.94;;;20.63;67.11
62462;BME280;48511;38.664;-9.202;2022-07-22T07:49:00;100801.56;;;20.63;66.53
62462;BME280;48511;38.664;-9.202;2022-07-22T07:51:02;100793.25;;;20.68;66.92
62462;BME280;48511;38.664;-9.202;2022-07-22T07:53:02;100799.50;;;20.78;66.20
62462;BME280;48511;38.664;-9.202;2022-07-22T07:55:05;100801.19;;;20.79;65.90
62462;BME280;48511;38.664;-9.202;2022-07-22T07:57:07;100799.50;;;20.78;66.38
62462;BME280;48511;38.664;-9.202;2022-07-22T07:59:09;100808.00;;;20.93;66.18
62462;BME280;48511;38.664;-9.202;2022-07-22T08:01:10;100808.81;;;20.94;65.72
62462;BME280;48511;38.664;-9.202;2022-07-22T08:03:11;100797.31;;;20.84;65.71
62462;BME280;48511;38.664;-9.202;2022-07-22T08:05:12;100806.00;;;20.86;65.46
62462;BME280;48511;38.664;-9.202;2022-07-22T08:07:13;100816.00;;;21.03;64.96
62462;BME280;48511;38.664;-9.202;2022-07-22T08:09:16;100808.38;;;21.31;64.60
62462;BME280;48511;38.664;-9.202;2022-07-22T08:11:18;100805.22;;;21.47;64.45
62462;BME280;48511;38.664;-9.202;2022-07-22T08:13:32;100802.59;;;21.68;62.80
62462;BME280;48511;38.664;-9.202;2022-07-22T08:15:46;100808.63;;;21.80;62.76
62462;BME280;48511;38.664;-9.202;2022-07-22T08:17:57;100815.88;;;22.19;61.48
62462;BME280;48511;38.664;-9.202;2022-07-22T08:19:59;100818.84;;;22.25;60.34
62462;BME280;48511;38.664;-9.202;2022-07-22T08:22:00;100812.25;;;22.20;60.77
62462;BME280;48511;38.664;-9.202;2022-07-22T08:24:04;100815.94;;;22.38;59.95
62462;BME280;48511;38.664;-9.202;2022-07-22T08:26:05;100818.75;;;22.47;59.67
62462;BME280;48511;38.664;-9.202;2022-07-22T08:28:06;100810.88;;;22.35;60.08
62462;BME280;48511;38.664;-9.202;2022-07-22T08:30:08;100812.00;;;22.23;60.30
62462;BME280;48511;38.664;-9.202;2022-07-22T08:32:09;100808.34;;;22.34;60.18
62462;BME280;48511;38.664;-9.202;2022-07-22T08:34:10;100798.41;;;22.06;60.80
62462;BME280;48511;38.664;-9.202;2022-07-22T08:36:11;100810.25;;;22.02;61.30
62462;BME280;48511;38.664;-9.202;2022-07-22T08:38:11;100803.84;;;22.15;60.86
62462;BME280;48511;38.664;-9.202;2022-07-22T08:40:13;100798.38;;;22.47;60.22
62462;BME280;48511;38.664;-9.202;2022-07-22T08:42:14;100803.25;;;22.91;57.78
62462;BME280;48511;38.664;-9.202;2022-07-22T08:44:15;100800.44;;;23.02;57.51
62462;BME280;48511;38.664;-9.202;2022-07-22T08:46:16;100803.09;;;22.63;59.08
62462;BME280;48511;38.664;-9.202;2022-07-22T08:48:39;100807.31;;;22.66;58.82
62462;BME280;48511;38.664;-9.202;2022-07-22T08:51:09;100808.13;;;22.66;58.68
62462;BME280;48511;38.664;-9.202;2022-07-22T08:53:20;100804.91;;;22.53;58.48
62462;BME280;48511;38.664;-9.202;2022-07-22T08:55:22;100802.66;;;22.48;58.72
62462;BME280;48511;38.664;-9.202;2022-07-22T08:57:22;100808.00;;;22.58;59.22
62462;BME280;48511;38.664;-9.202;2022-07-22T08:59:24;100800.75;;;22.60;59.00
62462;BME280;48511;38.664;-9.202;2022-07-22T09:01:25;100798.63;;;22.64;57.70
62462;BME280;48511;38.664;-9.202;2022-07-22T09:03:28;100804.75;;;23.03;56.41
62462;BME280;48511;38.664;-9.202;2022-07-22T09:05:33;100795.78;;;23.14;56.32
62462;BME280;48511;38.664;-9.202;2022-07-22T09:07:38;100803.00;;;23.51;56.09
62462;BME280;48511;38.664;-9.202;2022-07-22T09:09:49;100796.91;;;23.31;55.40
62462;BME280;48511;38.664;-9.202;2022-07-22T09:12:09;100792.16;;;23.25;55.52
62462;BME280;48511;38.664;-9.202;2022-07-22T09:14:45;100796.63;;;23.24;55.27
62462;BME280;48511;38.664;-9.202;2022-07-22T09:17:05;100804.59;;;23.72;54.84
62462;BME280;48511;38.664;-9.202;2022-07-22T09:19:33;100799.75;;;23.85;53.59
62462;BME280;48511;38.664;-9.202;2022-07-22T09:21:53;100797.53;;;23.90;53.86
62462;BME280;48511;38.664;-9.202;2022-07-22T09:23:59;100797.66;;;23.89;54.34
62462;BME280;48511;38.664;-9.202;2022-07-22T09:26:00;100802.88;;;24.08;52.93
62462;BME280;48511;38.664;-9.202;2022-07-22T09:28:27;100798.44;;;24.27;52.85
62462;BME280;48511;38.664;-9.202;2022-07-22T09:30:52;100801.88;;;24.37;52.16
62462;BME280;48511;38.664;-9.202;2022-07-22T09:32:54;100808.94;;;24.29;51.95
62462;BME280;48511;38.664;-9.202;2022-07-22T09:35:12;100804.22;;;24.40;51.98
62462;BME280;48511;38.664;-9.202;2022-07-22T09:37:20;100807.75;;;24.77;50.71
62462;BME280;48511;38.664;-9.202;2022-07-22T09:39:32;100809.31;;;25.06;50.18
62462;BME280;48511;38.664;-9.202;2022-07-22T09:41:34;100805.88;;;25.14;50.16
62462;BME280;48511;38.664;-9.202;2022-07-22T09:43:36;100813.91;;;24.96;50.71
62462;BME280;48511;38.664;-9.202;2022-07-22T09:45:45;100807.81;;;24.85;49.46
62462;BME280;48511;38.664;-9.202;2022-07-22T09:47:47;100799.69;;;24.87;49.42
62462;BME280;48511;38.664;-9.202;2022-07-22T09:50:01;100808.84;;;25.11;49.74
62462;BME280;48511;38.664;-9.202;2022-07-22T09:52:30;100815.97;;;25.28;48.43
62462;BME280;48511;38.664;-9.202;2022-07-22T09:54:39;100813.84;;;25.58;48.81
62462;BME280;48511;38.664;-9.202;2022-07-22T09:56:40;100814.16;;;25.98;47.23
62462;BME280;48511;38.664;-9.202;2022-07-22T09:58:41;100815.75;;;26.09;47.10
62462;BME280;48511;38.664;-9.202;2022-07-22T10:00:59;100825.19;;;26.03;47.11
62462;BME280;48511;38.664;-9.202;2022-07-22T10:03:05;100818.59;;;26.15;46.66
62462;BME280;48511;38.664;-9.202;2022-07-22T10:05:09;100817.16;;;26.29;47.50
62462;BME280;48511;38.664;-9.202;2022-07-22T10:07:11;100818.34;;;26.43;48.06
62462;BME280;48511;38.664;-9.202;2022-07-22T10:09:15;100811.00;;;26.53;48.55
62462;BME280;48511;38.664;-9.202;2022-07-22T10:11:17;100817.16;;;26.62;47.96
62462;BME280;48511;38.664;-9.202;2022-07-22T10:13:19;100824.69;;;26.67;48.37
62462;BME280;48511;38.664;-9.202;2022-07-22T10:15:21;100829.22;;;26.83;48.09
62462;BME280;48511;38.664;-9.202;2022-07-22T10:17:23;100833.59;;;26.92;47.45
62462;BME280;48511;38.664;-9.202;2022-07-22T10:19:25;100832.53;;;26.68;47.14
62462;BME280;48511;38.664;-9.202;2022-07-22T10:21:33;100830.25;;;26.90;47.65
62462;BME280;48511;38.664;-9.202;2022-07-22T10:23:34;100827.06;;;27.11;47.29
62462;BME280;48511;38.664;-9.202;2022-07-22T10:25:57;100835.06;;;27.36;46.82
62462;BME280;48511;38.664;-9.202;2022-07-22T10:28:04;100830.50;;;27.61;46.19
62462;BME280;48511;38.664;-9.202;2022-07-22T10:30:05;100832.84;;;27.64;45.28
62462;BME280;48511;38.664;-9.202;2022-07-22T10:34:16;100826.47;;;27.65;45.84
62462;BME280;48511;38.664;-9.202;2022-07-22T10:36:33;100825.53;;;27.33;45.69
62462;BME280;48511;38.664;-9.202;2022-07-22T10:38:34;100824.78;;;27.73;45.53
62462;BME280;48511;38.664;-9.202;2022-07-22T10:40:54;100825.63;;;27.65;45.25